Time;durP1;ratioP1;P1;durP2;ratioP2;P2;SDS_P1;SDS_P2;PMS_P1;PMS_P2;Temp;Humidity;BMP_temperature;BMP_pressure;BME280_temperature;BME280_humidity;BME280_pressure;Samples;Min_cycle;Max_cycle;Signal;HPM_P1;HPM_P2
2021/12/30 00:00:57;;;;;;;;;0.00;0.00;;;;;17.07;70.74;101078.84;2085024;28;48385;-56
2021/12/30 00:01:57;;;;;;;;;0.75;0.75;;;;;17.07;70.68;101078.84;2062920;27;47399;-56
2021/12/30 00:02:58;;;;;;;;;0.33;0.00;;;;;17.07;70.61;101078.84;2055470;28;46936;-58
2021/12/30 00:03:58;;;;;;;;;0.00;0.00;;;;;17.08;71.00;101085.09;2068666;28;48142;-58
2021/12/30 00:04:59;;;;;;;;;0.00;0.00;;;;;17.07;70.87;101086.91;2061303;28;46297;-58
2021/12/30 00:06:00;;;;;;;;;0.00;0.00;;;;;17.06;70.84;101083.34;2097667;27;47040;-57
2021/12/30 00:07:00;;;;;;;;;0.00;0.00;;;;;17.06;70.66;101083.34;2078808;27;45550;-57
2021/12/30 00:08:01;;;;;;;;;1.00;1.00;;;;;17.05;70.74;101076.25;2057489;27;47081;-57
2021/12/30 00:09:03;;;;;;;;;0.00;0.00;;;;;17.05;71.24;101084.28;2061952;28;47840;-57
2021/12/30 00:10:05;;;;;;;;;0.00;0.00;;;;;17.07;70.54;101086.91;2086538;28;48248;-58
2021/12/30 00:11:06;;;;;;;;;0.00;0.00;;;;;17.06;70.58;101091.38;2098037;27;48237;-56
2021/12/30 00:12:07;;;;;;;;;0.00;0.00;;;;;17.05;70.87;101081.59;2072208;27;47216;-58
2021/12/30 00:13:08;;;;;;;;;0.00;0.00;;;;;17.06;70.68;101091.38;2062557;27;48293;-57
2021/12/30 00:14:09;;;;;;;;;0.00;0.00;;;;;17.06;71.12;101090.50;2083103;28;48568;-59
2021/12/30 00:15:10;;;;;;;;;0.00;0.00;;;;;17.05;71.02;101089.66;2079929;28;48147;-61
2021/12/30 00:16:12;;;;;;;;;0.00;0.00;;;;;17.06;70.74;101090.50;2092722;27;48457;-58
2021/12/30 00:17:13;;;;;;;;;0.00;0.00;;;;;17.06;70.95;101096.75;2073384;27;47144;-59
2021/12/30 00:18:13;;;;;;;;;0.00;0.00;;;;;17.07;71.01;101094.94;2071712;28;47240;-58
2021/12/30 00:19:14;;;;;;;;;1.67;0.00;;;;;17.08;70.82;101103.84;2080102;28;45249;-57
2021/12/30 00:20:15;;;;;;;;;0.00;0.00;;;;;17.07;70.71;101100.31;2089477;28;48101;-59
2021/12/30 00:21:16;;;;;;;;;0.67;0.67;;;;;17.06;70.83;101096.75;2081820;28;48313;-57
2021/12/30 00:22:16;;;;;;;;;0.00;0.00;;;;;17.06;70.89;101090.50;2072273;27;47600;-57
2021/12/30 00:23:17;;;;;;;;;0.33;0.00;;;;;17.06;70.58;101096.75;2059375;28;47092;-57
2021/12/30 00:24:18;;;;;;;;;0.00;0.00;;;;;17.05;70.84;101095.00;2053759;28;48404;-58
2021/12/30 00:25:18;;;;;;;;;0.00;0.00;;;;;17.06;70.85;101101.25;2049362;28;46398;-58
2021/12/30 00:26:19;;;;;;;;;0.00;0.00;;;;;17.07;70.63;101097.63;2073921;28;48364;-57
2021/12/30 00:27:20;;;;;;;;;0.00;0.00;;;;;17.07;70.57;101086.91;2069440;27;48646;-59
2021/12/30 00:28:22;;;;;;;;;0.00;0.00;;;;;17.08;70.94;101096.69;2064075;28;46381;-56
2021/12/30 00:29:24;;;;;;;;;0.00;0.00;;;;;17.08;70.69;101090.44;2067048;28;47638;-58
2021/12/30 00:30:24;;;;;;;;;0.00;0.00;;;;;17.07;70.59;101089.56;2097674;27;46202;-56
2021/12/30 00:31:25;;;;;;;;;0.00;0.00;;;;;17.08;70.51;101093.13;2089840;27;46907;-57
2021/12/30 00:32:25;;;;;;;;;0.00;0.00;;;;;17.08;70.61;101085.09;2068675;27;48301;-56
2021/12/30 00:33:27;;;;;;;;;0.00;0.00;;;;;17.07;70.93;101094.94;2068784;27;47054;-58
2021/12/30 00:34:28;;;;;;;;;0.00;0.00;;;;;17.08;70.67;101091.31;2075463;28;47376;-58
2021/12/30 00:35:28;;;;;;;;;0.00;0.00;;;;;17.09;70.66;101097.56;2092625;27;48193;-57
2021/12/30 00:36:29;;;;;;;;;0.00;0.00;;;;;17.09;70.84;101090.38;2093536;28;45434;-58
2021/12/30 00:37:29;;;;;;;;;0.00;0.00;;;;;17.08;70.66;101090.44;2062207;27;48430;-57
2021/12/30 00:38:30;;;;;;;;;0.00;0.00;;;;;17.08;70.84;101088.63;2054869;28;48168;-57
2021/12/30 00:39:30;;;;;;;;;0.00;0.00;;;;;17.08;70.40;101095.81;2057382;27;48151;-57
2021/12/30 00:40:32;;;;;;;;;0.00;0.00;;;;;17.08;71.04;101094.00;2060260;27;48113;-57
2021/12/30 00:41:32;;;;;;;;;0.00;0.00;;;;;17.07;71.02;101097.63;2097771;27;48065;-57
2021/12/30 00:42:33;;;;;;;;;0.00;0.00;;;;;17.08;70.78;101093.13;2068759;27;48608;-58
2021/12/30 00:43:34;;;;;;;;;0.00;0.00;;;;;17.09;70.84;101101.09;2055813;27;47479;-58
2021/12/30 00:44:34;;;;;;;;;0.00;0.00;;;;;17.09;70.84;101102.91;2062963;28;48319;-57
2021/12/30 00:45:36;;;;;;;;;0.00;0.00;;;;;17.09;70.54;101101.09;2070655;28;47330;-57
2021/12/30 00:46:36;;;;;;;;;0.00;0.00;;;;;17.10;70.65;101096.59;2067204;27;48338;-58
2021/12/30 00:47:37;;;;;;;;;0.00;0.00;;;;;17.10;70.73;101101.97;2058333;28;47087;-58
2021/12/30 00:48:38;;;;;;;;;0.00;0.00;;;;;17.10;70.73;101096.59;2062366;28;47015;-57
2021/12/30 00:49:39;;;;;;;;;0.00;0.00;;;;;17.10;70.73;101101.97;2056829;27;48033;-58
2021/12/30 00:50:41;;;;;;;;;1.00;1.00;;;;;17.11;70.66;101106.41;2079176;27;47050;-58
2021/12/30 00:51:42;;;;;;;;;0.00;0.00;;;;;17.11;70.59;101106.41;2088786;27;48099;-58
2021/12/30 00:52:43;;;;;;;;;1.00;1.00;;;;;17.10;70.96;101105.53;2051231;28;46997;-56
2021/12/30 00:53:43;;;;;;;;;0.00;0.00;;;;;17.10;70.74;101110.88;2071978;28;46825;-59
2021/12/30 00:54:43;;;;;;;;;0.00;0.00;;;;;17.10;70.63;101118.06;2058986;28;45299;-57
2021/12/30 00:55:44;;;;;;;;;0.33;0.00;;;;;17.10;70.57;101118.94;2069724;28;48172;-58
2021/12/30 00:56:45;;;;;;;;;0.00;0.00;;;;;17.10;70.73;101110.03;2061547;28;46891;-57
2021/12/30 00:57:46;;;;;;;;;0.25;0.25;;;;;17.09;70.89;101117.19;2054207;28;47850;-58
2021/12/30 00:58:46;;;;;;;;;1.00;1.00;;;;;17.09;70.82;101117.19;2063618;28;48081;-58
2021/12/30 00:59:47;;;;;;;;;0.00;0.00;;;;;17.09;70.93;101108.28;2050747;28;45517;-59
2021/12/30 01:00:48;;;;;;;;;0.00;0.00;;;;;17.09;70.74;101125.25;2096394;28;48310;-57
2021/12/30 01:01:48;;;;;;;;;0.00;0.00;;;;;17.09;70.54;101114.50;2073330;27;48508;-59
2021/12/30 01:02:50;;;;;;;;;0.00;0.00;;;;;17.11;70.73;101111.75;2055364;28;47687;-57
2021/12/30 01:03:51;;;;;;;;;0.00;0.00;;;;;17.11;70.94;101123.34;2077476;27;48325;-57
2021/12/30 01:04:52;;;;;;;;;0.00;0.00;;;;;17.11;70.69;101120.69;2061141;27;47366;-58
2021/12/30 01:05:52;;;;;;;;;1.00;1.00;;;;;17.11;70.32;101126.03;2097462;27;48033;-57
2021/12/30 01:06:52;;;;;;;;;0.00;0.00;;;;;17.11;70.70;101125.16;2079892;27;48106;-57
2021/12/30 01:07:53;;;;;;;;;0.00;0.00;;;;;17.11;71.00;101122.50;2052900;28;47262;-57
2021/12/30 01:08:54;;;;;;;;;0.00;0.00;;;;;17.10;70.80;101124.28;2060243;28;47111;-56
2021/12/30 01:09:54;;;;;;;;;2.00;0.00;;;;;17.11;70.64;101127.84;2086165;28;47763;-58
2021/12/30 01:10:55;;;;;;;;;1.33;1.00;;;;;17.10;70.77;101124.28;2053556;27;46796;-57
2021/12/30 01:11:58;;;;;;;;;1.25;0.75;;;;;17.10;70.66;101132.34;2067653;28;48254;-58
2021/12/30 01:13:05;;;;;;;;;0.00;0.00;;;;;17.11;70.46;101133.22;2056202;28;48365;-58
2021/12/30 01:14:19;;;;;;;;;0.00;0.00;;;;;17.11;70.78;101133.22;2053709;27;48125;-59
2021/12/30 01:15:32;;;;;;;;;0.00;0.00;;;;;17.11;70.55;101134.09;2094227;27;46997;-57
2021/12/30 01:16:41;;;;;;;;;0.00;0.00;;;;;17.12;70.87;101134.97;2083266;27;48110;-58
2021/12/30 01:17:56;;;;;;;;;0.00;0.00;;;;;17.11;70.61;101134.09;2054427;28;48691;-58
2021/12/30 01:20:00;;;;;;;;;0.50;0.50;;;;;17.11;70.49;101143.94;2076860;28;48226;-57
2021/12/30 01:21:01;;;;;;;;;0.00;0.00;;;;;17.10;70.66;101145.75;2093765;27;47302;-57
2021/12/30 01:22:02;;;;;;;;;0.33;0.33;;;;;17.10;70.65;101150.25;2079658;27;47858;-57
2021/12/30 01:23:02;;;;;;;;;0.00;0.00;;;;;17.09;70.69;101145.81;2048932;28;45936;-58
2021/12/30 01:24:03;;;;;;;;;0.33;0.33;;;;;17.08;70.69;101147.63;2046013;28;47018;-59
2021/12/30 01:25:07;;;;;;;;;0.00;0.00;;;;;17.08;71.00;101150.31;2083329;28;47484;-58
2021/12/30 01:26:08;;;;;;;;;0.00;0.00;;;;;17.08;70.81;101150.31;2060675;28;47594;-58
2021/12/30 01:27:09;;;;;;;;;1.25;1.25;;;;;17.09;70.92;101156.53;2077736;27;48119;-58
2021/12/30 01:28:09;;;;;;;;;0.33;0.33;;;;;17.08;71.00;101155.69;2065576;28;47347;-58
2021/12/30 01:29:10;;;;;;;;;1.00;1.00;;;;;17.09;70.76;101154.72;2054748;28;46880;-58
2021/12/30 01:30:14;;;;;;;;;0.00;0.00;;;;;17.09;71.06;101156.53;2097214;27;46945;-57
2021/12/30 01:31:16;;;;;;;;;0.00;0.00;;;;;17.09;70.85;101161.91;2090792;27;48260;-57
2021/12/30 01:32:17;;;;;;;;;0.00;0.00;;;;;17.09;71.09;101152.06;2068910;27;47643;-57
2021/12/30 01:33:17;;;;;;;;;0.00;0.00;;;;;17.09;70.72;101162.78;2070535;28;46197;-57
2021/12/30 01:34:18;;;;;;;;;1.00;1.00;;;;;17.10;71.03;101167.22;2067720;27;47057;-57
2021/12/30 01:35:23;;;;;;;;;1.00;1.00;;;;;17.10;70.98;101164.53;2068009;27;47766;-57
2021/12/30 01:36:26;;;;;;;;;0.75;0.75;;;;;17.11;70.89;101170.75;2087771;28;46325;-58
2021/12/30 01:37:27;;;;;;;;;0.75;0.75;;;;;17.11;70.53;101173.44;2073817;27;46401;-58
2021/12/30 01:38:27;;;;;;;;;0.00;0.00;;;;;17.11;71.00;101168.06;2053409;28;47778;-59
2021/12/30 01:39:29;;;;;;;;;0.00;0.00;;;;;17.12;70.68;101177.88;2081641;28;47078;-58
2021/12/30 01:40:30;;;;;;;;;1.00;0.00;;;;;17.12;70.85;101175.19;2091842;27;47475;-58
2021/12/30 01:41:31;;;;;;;;;0.00;0.00;;;;;17.12;70.83;101178.72;2072418;27;48698;-58
2021/12/30 01:42:32;;;;;;;;;0.00;0.00;;;;;17.11;71.21;101176.13;2060895;28;47244;-57
2021/12/30 01:43:35;;;;;;;;;0.50;0.50;;;;;17.11;71.16;101184.16;2054888;28;47403;-58
2021/12/30 01:44:35;;;;;;;;;1.00;0.75;;;;;17.11;71.17;101185.03;2061193;28;47959;-58
2021/12/30 01:45:36;;;;;;;;;0.67;0.67;;;;;17.11;71.07;101176.13;2068515;28;46774;-58
2021/12/30 01:46:40;;;;;;;;;0.00;0.00;;;;;17.12;70.76;101181.41;2096155;27;75407;-59
2021/12/30 01:47:53;;;;;;;;;0.00;0.00;;;;;17.12;71.14;101184.09;2054839;28;74151;-58
2021/12/30 01:48:53;;;;;;;;;0.25;0.00;;;;;17.12;70.80;101181.41;2065529;28;75450;-57
2021/12/30 01:49:54;;;;;;;;;0.00;0.00;;;;;17.13;71.19;101182.28;2054970;28;74157;-57
2021/12/30 01:50:55;;;;;;;;;0.00;0.00;;;;;17.13;70.97;101182.28;2064646;28;74566;-58
2021/12/30 01:51:57;;;;;;;;;0.25;0.00;;;;;17.13;71.29;101182.28;2050478;28;75599;-58
2021/12/30 01:52:58;;;;;;;;;0.00;0.00;;;;;17.13;71.07;101183.16;2053134;28;74061;-58
2021/12/30 01:53:59;;;;;;;;;1.00;1.00;;;;;17.13;71.08;101177.78;2059414;28;75466;-57
2021/12/30 01:55:01;;;;;;;;;0.25;0.00;;;;;17.14;71.28;101179.53;2050880;28;75262;-57
2021/12/30 01:56:03;;;;;;;;;0.00;0.00;;;;;17.15;70.90;101177.72;2061617;28;75271;-58
2021/12/30 01:57:05;;;;;;;;;0.25;0.25;;;;;17.14;71.31;101174.19;2056213;28;75220;-57
2021/12/30 01:58:08;;;;;;;;;1.00;0.00;;;;;17.14;71.25;101181.34;2054229;27;75327;-58
2021/12/30 01:59:09;;;;;;;;;0.00;0.00;;;;;17.14;71.30;101179.53;2079247;28;75285;-58
2021/12/30 02:00:13;;;;;;;;;1.00;0.00;;;;;17.15;71.27;101183.09;2058280;28;75523;-58
2021/12/30 02:01:14;;;;;;;;;0.00;0.00;;;;;17.14;71.43;101184.03;2057346;28;75495;-59
2021/12/30 02:02:14;;;;;;;;;0.00;0.00;;;;;17.14;71.13;101184.03;2063603;28;74398;-58
2021/12/30 02:03:17;;;;;;;;;1.00;1.00;;;;;17.13;71.49;101183.16;2061572;28;75371;-58
2021/12/30 02:04:17;;;;;;;;;0.00;0.00;;;;;17.14;71.01;101187.59;2076477;27;73992;-58
2021/12/30 02:05:20;;;;;;;;;0.67;0.00;;;;;17.14;71.10;101187.59;2077311;28;74234;-58
2021/12/30 02:06:21;;;;;;;;;1.00;0.00;;;;;17.14;71.48;101181.34;2089749;27;75356;-58
2021/12/30 02:07:22;;;;;;;;;0.00;0.00;;;;;17.14;71.17;101189.41;2067779;27;74138;-58
2021/12/30 02:08:23;;;;;;;;;0.00;0.00;;;;;17.15;71.40;101185.78;2056040;28;75273;-57
2021/12/30 02:09:25;;;;;;;;;0.00;0.00;;;;;17.14;71.49;101187.59;2052707;28;75347;-57
2021/12/30 02:10:26;;;;;;;;;0.00;0.00;;;;;17.14;71.26;101179.53;2083891;28;74603;-57
2021/12/30 02:11:27;;;;;;;;;0.00;0.00;;;;;17.13;71.25;101188.53;2063141;27;75258;-57
2021/12/30 02:12:33;;;;;;;;;0.00;0.00;;;;;17.14;71.50;101186.72;2063109;27;74825;-59
2021/12/30 02:13:34;;;;;;;;;0.00;0.00;;;;;17.13;71.12;101182.28;2080034;28;74878;-58
2021/12/30 02:14:36;;;;;;;;;0.25;0.00;;;;;17.13;71.37;101183.16;2053724;27;75544;-57
2021/12/30 02:15:37;;;;;;;;;0.50;0.50;;;;;17.14;71.39;101184.03;2095588;27;75342;-57
2021/12/30 02:16:38;;;;;;;;;0.00;0.00;;;;;17.13;71.49;101191.19;2091494;27;75575;-57
2021/12/30 02:17:39;;;;;;;;;0.00;0.00;;;;;17.13;71.69;101199.25;2054214;27;74547;-57
2021/12/30 02:18:40;;;;;;;;;0.00;0.00;;;;;17.14;71.39;101197.44;2091816;28;75840;-57
2021/12/30 02:19:41;;;;;;;;;1.00;0.00;;;;;17.13;71.67;101196.56;2072656;27;75264;-57
2021/12/30 02:21:02;;;;;;;;;0.00;0.00;;;;;17.13;71.64;101201.06;2053872;27;74219;-58
2021/12/30 02:22:04;;;;;;;;;0.25;0.25;;;;;17.12;71.50;101193.94;2080949;28;75227;-58
2021/12/30 02:23:04;;;;;;;;;0.00;0.00;;;;;17.13;71.68;101201.06;2058954;28;76182;-57
2021/12/30 02:24:06;;;;;;;;;0.33;0.33;;;;;17.13;71.42;101199.25;2051105;28;75178;-58
2021/12/30 02:25:07;;;;;;;;;0.00;0.00;;;;;17.14;71.41;101200.13;2084399;28;75593;-58
2021/12/30 02:26:18;;;;;;;;;0.00;0.00;;;;;17.15;71.50;101207.22;2055678;28;75347;-57
2021/12/30 02:27:19;;;;;;;;;0.00;0.00;;;;;17.14;71.49;101201.00;2053042;28;74433;-57
2021/12/30 02:28:24;;;;;;;;;0.00;0.00;;;;;17.15;71.48;101199.19;2065337;28;75970;-57
2021/12/30 02:29:25;;;;;;;;;1.00;1.00;;;;;17.15;71.49;101200.09;2054832;28;75810;-57
2021/12/30 02:30:25;;;;;;;;;0.75;0.75;;;;;17.14;71.32;101198.31;2053280;28;75256;-58
2021/12/30 02:31:29;;;;;;;;;1.00;1.00;;;;;17.14;71.39;101206.34;2083797;28;75389;-58
2021/12/30 02:32:29;;;;;;;;;0.00;0.00;;;;;17.14;71.42;101206.34;2062510;27;74176;-57
2021/12/30 02:33:30;;;;;;;;;0.67;0.67;;;;;17.14;71.33;101202.81;2053626;28;75313;-58
2021/12/30 02:34:32;;;;;;;;;1.00;1.00;;;;;17.13;71.43;101204.63;2075921;28;75316;-57
2021/12/30 02:35:33;;;;;;;;;0.00;0.00;;;;;17.14;71.65;101208.16;2089589;28;75198;-56
2021/12/30 02:36:36;;;;;;;;;0.00;0.00;;;;;17.14;71.72;101210.84;2050744;27;75111;-57
2021/12/30 02:37:37;;;;;;;;;0.00;0.00;;;;;17.14;71.41;101206.34;2055363;27;75488;-57
2021/12/30 02:38:44;;;;;;;;;0.00;0.00;;;;;17.14;71.52;101210.84;2051852;28;75207;-57
2021/12/30 02:39:51;;;;;;;;;0.00;0.00;;;;;17.14;71.46;101210.84;2046462;28;75400;-58
2021/12/30 02:40:55;;;;;;;;;0.00;0.00;;;;;17.14;71.42;101217.09;2071869;28;73922;-58
2021/12/30 02:41:56;;;;;;;;;0.00;0.00;;;;;17.15;71.56;101215.28;2086014;27;74182;-57
2021/12/30 02:42:58;;;;;;;;;0.00;0.00;;;;;17.14;71.30;101214.41;2062061;28;74177;-58
2021/12/30 02:44:00;;;;;;;;;0.00;0.00;;;;;17.15;71.48;101223.31;2061806;28;74115;-58
2021/12/30 02:45:01;;;;;;;;;0.00;0.00;;;;;17.14;71.15;101222.44;2052706;28;73872;-57
2021/12/30 02:46:03;;;;;;;;;0.00;0.00;;;;;17.15;71.39;101223.31;2085868;28;75110;-58
2021/12/30 02:47:05;;;;;;;;;0.00;0.00;;;;;17.14;71.31;101225.13;2084270;27;75393;-58
2021/12/30 02:48:11;;;;;;;;;0.00;0.00;;;;;17.14;71.43;101218.91;2052949;28;75442;-59
2021/12/30 02:49:12;;;;;;;;;0.00;0.00;;;;;17.15;71.47;101224.22;2069156;28;74092;-58
2021/12/30 02:50:13;;;;;;;;;0.00;0.00;;;;;17.15;71.10;101228.69;2057640;28;75304;-58
2021/12/30 02:51:14;;;;;;;;;0.00;0.00;;;;;17.15;71.42;101226.00;2091415;27;74765;-57
2021/12/30 02:52:15;;;;;;;;;0.00;0.00;;;;;17.15;71.48;101221.53;2053303;27;75324;-57
2021/12/30 02:53:17;;;;;;;;;0.00;0.00;;;;;17.17;71.40;101237.56;2049031;28;75217;-58
2021/12/30 02:54:18;;;;;;;;;0.00;0.00;;;;;17.17;71.09;101234.88;2074220;28;74776;-58
2021/12/30 02:55:18;;;;;;;;;0.00;0.00;;;;;17.16;71.30;101238.50;2069018;28;75280;-58
2021/12/30 02:56:21;;;;;;;;;0.67;0.00;;;;;17.17;71.10;101241.13;2095487;27;75365;-58
2021/12/30 02:57:25;;;;;;;;;0.00;0.00;;;;;17.16;71.32;101239.38;2063185;27;75098;-58
2021/12/30 02:58:26;;;;;;;;;0.00;0.00;;;;;17.16;71.47;101244.75;2061402;28;75361;-58
2021/12/30 02:59:27;;;;;;;;;0.00;0.00;;;;;17.17;71.17;101234.88;2070164;27;75383;-57
2021/12/30 03:00:29;;;;;;;;;0.00;0.00;;;;;17.16;71.30;101244.75;2081177;28;75352;-57
2021/12/30 03:01:32;;;;;;;;;0.00;0.00;;;;;17.16;70.98;101241.19;2057047;28;75795;-58
2021/12/30 03:02:39;;;;;;;;;0.00;0.00;;;;;17.15;70.92;101236.72;2059855;27;75283;-58
2021/12/30 03:03:41;;;;;;;;;0.25;0.25;;;;;17.14;71.25;101243.91;2071949;28;75248;-58
2021/12/30 03:04:42;;;;;;;;;0.00;0.00;;;;;17.14;71.11;101235.00;2054441;28;75322;-57
2021/12/30 03:05:42;;;;;;;;;0.00;0.00;;;;;17.13;70.95;101239.47;2045016;28;75959;-59
2021/12/30 03:06:43;;;;;;;;;0.00;0.00;;;;;17.13;71.04;101234.13;2062905;28;74207;-57
2021/12/30 03:07:45;;;;;;;;;0.00;0.00;;;;;17.12;71.03;101235.06;2052463;28;77097;-58
2021/12/30 03:08:48;;;;;;;;;0.00;0.00;;;;;17.14;71.31;101240.34;2055974;28;73963;-58
2021/12/30 03:09:49;;;;;;;;;0.00;0.00;;;;;17.14;71.25;101232.31;2079055;28;75557;-58
2021/12/30 03:10:50;;;;;;;;;1.00;0.00;;;;;17.14;71.11;101233.19;2053049;28;75164;-59
2021/12/30 03:11:51;;;;;;;;;0.00;0.00;;;;;17.14;71.47;101230.50;2069972;28;75488;-58
2021/12/30 03:13:04;;;;;;;;;0.00;0.00;;;;;17.14;71.00;101233.19;2054303;28;75436;-59
2021/12/30 03:14:04;;;;;;;;;0.00;0.00;;;;;17.14;71.04;101235.00;2086102;27;73929;-59
2021/12/30 03:15:05;;;;;;;;;0.67;0.00;;;;;17.14;71.00;101238.53;2075769;28;75252;-59
2021/12/30 03:16:12;;;;;;;;;0.00;0.00;;;;;17.14;70.93;101233.19;2084792;27;75702;-59
2021/12/30 03:17:13;;;;;;;;;0.25;0.25;;;;;17.14;71.28;101230.50;2073866;27;74288;-58
2021/12/30 03:18:14;;;;;;;;;0.00;0.00;;;;;17.14;71.17;101233.19;2069159;28;75297;-58
2021/12/30 03:19:15;;;;;;;;;0.00;0.00;;;;;17.14;71.10;101224.25;2077979;27;74198;-58
2021/12/30 03:20:16;;;;;;;;;0.00;0.00;;;;;17.15;71.08;101231.38;2087699;28;74012;-59
2021/12/30 03:21:22;;;;;;;;;0.25;0.25;;;;;17.15;71.15;101229.59;2091282;27;74559;-58
2021/12/30 03:22:24;;;;;;;;;0.50;0.00;;;;;17.15;71.02;101234.06;2067060;27;75355;-58
2021/12/30 03:23:25;;;;;;;;;0.00;0.00;;;;;17.14;70.88;101229.63;2057425;28;75164;-58
2021/12/30 03:24:26;;;;;;;;;0.50;0.50;;;;;17.13;70.93;101236.78;2058241;28;75308;-58
2021/12/30 03:25:27;;;;;;;;;0.00;0.00;;;;;17.14;71.03;101238.53;2072763;27;73854;-57
2021/12/30 03:26:29;;;;;;;;;0.00;0.00;;;;;17.14;71.02;101243.03;2051937;28;75348;-58
2021/12/30 03:27:30;;;;;;;;;0.00;0.00;;;;;17.15;71.08;101242.09;2052574;28;75600;-58
2021/12/30 03:28:31;;;;;;;;;0.00;0.00;;;;;17.15;70.86;101242.09;2072056;27;73945;-58
2021/12/30 03:29:32;;;;;;;;;0.00;0.00;;;;;17.15;71.07;101239.41;2067576;28;75241;-58
2021/12/30 03:30:33;;;;;;;;;0.00;0.00;;;;;17.14;70.74;101241.22;2094928;27;74568;-58
2021/12/30 03:31:33;;;;;;;;;0.00;0.00;;;;;17.15;71.01;101242.09;2090450;27;74027;-58
2021/12/30 03:32:34;;;;;;;;;0.00;0.00;;;;;17.15;70.90;101240.31;2066572;27;75290;-57
2021/12/30 03:33:36;;;;;;;;;0.00;0.00;;;;;17.14;70.79;101249.28;2061699;27;73969;-58
2021/12/30 03:34:37;;;;;;;;;0.25;0.00;;;;;17.14;70.76;101246.59;2079980;28;75506;-57
2021/12/30 03:35:39;;;;;;;;;0.00;0.00;;;;;17.14;70.54;101251.94;2076646;27;75284;-57
2021/12/30 03:36:39;;;;;;;;;0.00;0.00;;;;;17.15;71.22;101248.38;2095080;27;75242;-56
2021/12/30 03:37:41;;;;;;;;;0.00;0.00;;;;;17.14;70.99;101246.59;2057772;27;75328;-56
2021/12/30 03:38:45;;;;;;;;;0.00;0.00;;;;;17.14;70.94;101251.94;2053446;28;75161;-57
2021/12/30 03:39:47;;;;;;;;;0.00;0.00;;;;;17.14;70.83;101240.34;2055271;28;46457;-57
2021/12/30 03:40:48;;;;;;;;;0.00;0.00;;;;;17.14;70.90;101241.22;2070269;28;46368;-56
2021/12/30 03:41:48;;;;;;;;;0.00;0.00;;;;;17.15;70.76;101243.00;2078625;27;47104;-58
2021/12/30 03:42:48;;;;;;;;;0.00;0.00;;;;;17.16;71.08;101247.44;2062631;28;46080;-57
2021/12/30 03:43:50;;;;;;;;;0.00;0.00;;;;;17.16;71.04;101243.88;2060672;28;47532;-57
2021/12/30 03:44:52;;;;;;;;;0.00;0.00;;;;;17.15;71.02;101240.31;2052068;27;47485;-58
2021/12/30 03:45:52;;;;;;;;;1.00;1.00;;;;;17.16;70.98;101235.81;2077281;28;48090;-57
2021/12/30 03:46:53;;;;;;;;;0.00;0.00;;;;;17.16;70.92;101235.81;2090131;27;47866;-59
2021/12/30 03:47:55;;;;;;;;;0.00;0.00;;;;;17.17;70.95;101241.13;2055898;28;47097;-58
2021/12/30 03:48:55;;;;;;;;;0.00;0.00;;;;;17.18;70.77;101239.31;2066389;28;47322;-58
2021/12/30 03:49:56;;;;;;;;;0.00;0.00;;;;;17.17;70.79;101232.22;2053943;28;47321;-58
2021/12/30 03:50:56;;;;;;;;;1.00;0.00;;;;;17.17;70.64;101233.06;2082493;28;47373;-59
2021/12/30 03:51:57;;;;;;;;;0.00;0.00;;;;;17.17;70.51;101248.31;2054564;28;46044;-58
2021/12/30 03:53:03;;;;;;;;;0.00;0.00;;;;;17.17;70.58;101242.94;2053833;28;46310;-58
2021/12/30 03:54:04;;;;;;;;;0.00;0.00;;;;;17.17;70.71;101238.44;2076778;27;47464;-58
2021/12/30 03:55:05;;;;;;;;;0.00;0.00;;;;;17.17;70.72;101237.56;2058182;28;47405;-58
2021/12/30 03:56:07;;;;;;;;;0.00;0.00;;;;;17.17;70.53;101235.75;2096538;27;47238;-58
2021/12/30 03:57:11;;;;;;;;;0.00;0.00;;;;;17.18;70.57;101233.94;2073020;27;48315;-58
2021/12/30 03:58:12;;;;;;;;;0.00;0.00;;;;;17.16;70.72;101236.69;2049946;28;45434;-58
2021/12/30 03:59:13;;;;;;;;;0.00;0.00;;;;;17.17;70.51;101234.88;2082395;27;45451;-56
2021/12/30 04:00:14;;;;;;;;;0.00;0.00;;;;;17.17;70.62;101234.88;2072718;28;47584;-57
2021/12/30 04:01:20;;;;;;;;;0.00;0.00;;;;;17.16;70.55;101228.66;2054053;27;46272;-57
2021/12/30 04:02:20;;;;;;;;;0.00;0.00;;;;;17.17;70.76;101234.88;2053298;28;47371;-58
2021/12/30 04:03:21;;;;;;;;;0.00;0.00;;;;;17.16;70.59;101234.00;2068721;28;47091;-58
2021/12/30 04:04:21;;;;;;;;;0.00;0.00;;;;;17.17;70.37;101229.53;2076330;27;47121;-58
2021/12/30 04:05:22;;;;;;;;;0.00;0.00;;;;;17.16;70.68;101233.16;2084774;28;47425;-57
2021/12/30 04:06:23;;;;;;;;;0.00;0.00;;;;;17.17;70.40;101225.03;2091813;27;48075;-59
2021/12/30 04:07:23;;;;;;;;;0.00;0.00;;;;;17.17;70.45;101229.53;2068294;27;47261;-58
2021/12/30 04:08:24;;;;;;;;;1.00;0.00;;;;;17.17;70.45;101225.03;2057479;28;48010;-57
2021/12/30 04:09:25;;;;;;;;;0.00;0.00;;;;;17.17;70.36;101230.41;2072538;28;48290;-57
2021/12/30 04:10:25;;;;;;;;;0.00;0.00;;;;;17.17;70.40;101218.78;2061814;28;47334;-57
2021/12/30 04:11:30;;;;;;;;;0.00;0.00;;;;;17.18;70.61;101223.22;2051457;27;47815;-58
2021/12/30 04:12:30;;;;;;;;;0.00;0.00;;;;;17.17;70.58;101226.84;2063693;27;47200;-57
2021/12/30 04:13:33;;;;;;;;;0.00;0.00;;;;;17.18;70.22;101220.53;2077919;28;48196;-58
2021/12/30 04:14:36;;;;;;;;;0.00;0.00;;;;;17.18;70.42;101225.91;2068045;27;45425;-58
2021/12/30 04:15:36;;;;;;;;;0.00;0.00;;;;;17.17;70.06;101229.53;2096305;27;46283;-57
2021/12/30 04:16:37;;;;;;;;;0.00;0.00;;;;;17.17;70.30;101230.41;2093607;27;48171;-58
2021/12/30 04:17:37;;;;;;;;;0.67;0.00;;;;;17.18;70.43;101236.63;2058349;28;47190;-57
2021/12/30 04:18:37;;;;;;;;;0.00;0.00;;;;;17.18;70.16;101229.47;2054306;28;48235;-57
2021/12/30 04:19:38;;;;;;;;;0.00;0.00;;;;;17.18;70.38;101237.50;2063678;28;47363;-57
2021/12/30 04:20:38;;;;;;;;;0.00;0.00;;;;;17.19;70.33;101246.41;2061054;27;47875;-57
2021/12/30 04:21:39;;;;;;;;;0.00;0.00;;;;;17.19;70.20;101239.25;2077493;28;47611;-57
2021/12/30 04:22:41;;;;;;;;;0.00;0.00;;;;;17.19;70.05;101236.56;2057946;28;48196;-57
2021/12/30 04:23:42;;;;;;;;;0.00;0.00;;;;;17.21;70.16;101236.50;2058838;27;48379;-58
2021/12/30 04:24:42;;;;;;;;;0.00;0.00;;;;;17.21;70.54;101240.06;2071780;28;48306;-57
2021/12/30 04:25:43;;;;;;;;;0.00;0.00;;;;;17.22;70.44;101238.25;2060038;27;47959;-56
2021/12/30 04:26:44;;;;;;;;;0.00;0.00;;;;;17.22;70.00;101241.78;2087487;27;46024;-57
2021/12/30 04:27:45;;;;;;;;;0.00;0.00;;;;;17.23;70.23;101242.66;2063915;27;48141;-56
2021/12/30 04:28:46;;;;;;;;;0.00;0.00;;;;;17.23;70.08;101237.31;2057781;27;47608;-58
2021/12/30 04:29:46;;;;;;;;;0.00;0.00;;;;;17.24;70.42;101234.56;2081919;28;47861;-58
2021/12/30 04:30:47;;;;;;;;;0.00;0.00;;;;;17.26;70.16;101234.50;2095156;27;48580;-57
2021/12/30 04:31:47;;;;;;;;;0.00;0.00;;;;;17.25;70.16;101235.44;2096164;27;48132;-57
2021/12/30 04:32:48;;;;;;;;;0.00;0.00;;;;;17.26;70.29;101235.34;2074101;28;47384;-57
2021/12/30 04:33:48;;;;;;;;;0.00;0.00;;;;;17.27;70.19;101233.53;2055622;27;48169;-58
2021/12/30 04:34:49;;;;;;;;;0.00;0.00;;;;;17.27;69.89;101231.75;2091233;28;47513;-57
2021/12/30 04:35:55;;;;;;;;;0.00;0.00;;;;;17.26;70.20;101237.16;2072346;27;45872;-58
2021/12/30 04:36:58;;;;;;;;;1.00;0.00;;;;;17.27;70.01;101225.50;2090126;27;47182;-57
2021/12/30 04:37:59;;;;;;;;;0.00;0.00;;;;;17.28;70.01;101221.91;2058493;28;47571;-57
2021/12/30 04:38:59;;;;;;;;;0.00;0.00;;;;;17.27;70.05;101226.38;2058726;27;47457;-58
2021/12/30 04:40:01;;;;;;;;;0.00;0.00;;;;;17.28;69.93;101229.97;2055151;28;47189;-57
2021/12/30 04:41:05;;;;;;;;;0.00;0.00;;;;;17.29;70.00;101223.66;2080096;28;47910;-58
2021/12/30 04:42:05;;;;;;;;;0.00;0.00;;;;;17.30;69.94;101234.31;2084136;28;46297;-57
2021/12/30 04:43:06;;;;;;;;;0.00;0.00;;;;;17.30;69.94;101231.63;2063357;27;48335;-58
2021/12/30 04:44:06;;;;;;;;;0.00;0.00;;;;;17.30;69.93;101226.28;2065052;28;47871;-57
2021/12/30 04:45:08;;;;;;;;;0.00;0.00;;;;;17.30;69.81;101228.09;2055172;28;47276;-58
2021/12/30 04:46:09;;;;;;;;;0.00;0.00;;;;;17.30;70.19;101225.41;2091185;28;48156;-57
2021/12/30 04:47:10;;;;;;;;;0.00;0.00;;;;;17.31;69.76;101229.81;2084781;27;47279;-57
2021/12/30 04:48:10;;;;;;;;;0.00;0.00;;;;;17.31;70.10;101225.34;2055104;28;45773;-56